Time;durP1;ratioP1;P1;durP2;ratioP2;P2;SDS_P1;SDS_P2;PMS_P1;PMS_P2;Temp;Humidity;BMP_temperature;BMP_pressure;BME280_temperature;BME280_humidity;BME280_pressure;Samples;Min_cycle;Max_cycle;Signal;HPM_P1;HPM_P2
2022/12/02 09:53:38;;;;;;;34.55;20.08;;;;;;;22.43;100.00;100879.56;1826562;76;28135;-86
2022/12/02 10:31:21;;;;;;;32.38;16.65;;;;;;;20.58;91.87;100879.60;1683801;82;21582;-80
2022/12/02 10:33:58;;;;;;;24.87;15.95;;;;;;;20.74;90.92;100876.23;1722802;80;21128;-83
2022/12/02 10:36:42;;;;;;;26.48;15.85;;;;;;;20.77;90.42;100878.66;1732538;80;21077;-81
2022/12/02 10:43:09;;;;;;;28.23;16.27;;;;;;;20.98;90.49;100883.41;1855354;76;24708;-83
2022/12/02 10:47:54;;;;;;;26.70;16.00;;;;;;;21.26;88.67;100888.00;1836636;76;24696;-69
2022/12/02 10:50:23;;;;;;;28.57;15.03;;;;;;;21.44;88.53;100889.34;1804707;78;21446;-68
2022/12/02 10:52:57;;;;;;;25.35;17.10;;;;;;;21.37;87.87;100888.09;1817103;78;21153;-68
2022/12/02 10:55:26;;;;;;;33.83;15.65;;;;;;;21.34;87.41;100893.60;1802657;78;21042;-68
2022/12/02 10:57:54;;;;;;;26.82;17.60;;;;;;;21.32;87.14;100895.55;1819034;77;21114;-68
2022/12/02 11:00:25;;;;;;;27.67;16.20;;;;;;;21.26;86.54;100881.36;1819426;78;21179;-66
2022/12/02 11:02:58;;;;;;;28.55;17.70;;;;;;;21.22;86.22;100884.25;1807360;78;21384;-69
2022/12/02 11:05:30;;;;;;;29.60;18.00;;;;;;;21.26;86.41;100888.00;1800705;78;21567;-70
2022/12/02 11:08:01;;;;;;;25.88;17.02;;;;;;;21.31;86.51;100873.91;1795450;77;21101;-69
2022/12/02 11:10:38;;;;;;;25.37;16.55;;;;;;;21.24;86.68;100867.73;1815280;78;21030;-69
2022/12/02 11:13:18;;;;;;;26.07;16.85;;;;;;;21.31;86.31;100867.27;1816826;77;21019;-70
2022/12/02 11:15:49;;;;;;;33.55;20.62;;;;;;;21.40;85.70;100858.18;1807784;77;21154;-69
2022/12/02 11:18:30;;;;;;;31.30;20.08;;;;;;;21.50;85.43;100850.35;1817123;77;21165;-70
2022/12/02 11:21:11;;;;;;;25.75;17.73;;;;;;;21.52;85.02;100851.09;1823603;78;21549;-70
2022/12/02 11:32:03;;;;;;;21.30;14.50;;;;;;;17.86;72.01;100888.34;1841094;76;25197;-72
2022/12/02 11:34:47;;;;;;;18.55;14.15;;;;;;;13.71;70.99;100883.20;1813686;77;21051;-73
2022/12/02 11:37:36;;;;;;;23.92;16.95;;;;;;;10.35;70.30;100898.69;1718251;78;91907;-73
2022/12/02 11:40:21;;;;;;;23.27;15.13;;;;;;;8.05;69.34;100899.51;1697013;82;30140;-73
2022/12/02 11:42:48;;;;;;;21.20;15.48;;;;;;;6.63;70.36;100906.84;1723785;82;21023;-72
2022/12/02 11:45:22;;;;;;;23.50;16.07;;;;;;;5.26;70.32;100904.64;1727333;82;21111;-72
2022/12/02 11:47:59;;;;;;;20.72;15.15;;;;;;;4.35;70.81;100906.80;1726748;82;21585;-73
2022/12/02 11:50:30;;;;;;;26.07;16.50;;;;;;;3.71;71.19;100911.19;1727784;81;21018;-73
2022/12/02 11:53:17;;;;;;;21.90;14.63;;;;;;;3.20;71.40;100899.97;1717772;82;21086;-72
2022/12/02 11:55:49;;;;;;;26.02;18.35;;;;;;;2.65;71.28;100900.66;1726512;82;21055;-72
2022/12/02 11:58:28;;;;;;;32.45;19.27;;;;;;;2.20;71.69;100909.05;1725173;82;20964;-72
2022/12/02 12:01:17;;;;;;;34.27;19.85;;;;;;;1.95;71.93;100903.73;1695412;83;21651;-72
2022/12/02 12:03:47;;;;;;;28.27;19.55;;;;;;;1.74;72.06;100910.03;1695679;83;21060;-72
2022/12/02 12:06:30;;;;;;;28.47;19.62;;;;;;;1.45;72.81;100906.77;1675318;85;22328;-72
2022/12/02 12:08:56;;;;;;;32.33;18.57;;;;;;;1.24;72.40;100907.87;1676883;85;21059;-72
2022/12/02 12:11:33;;;;;;;30.37;18.95;;;;;;;0.97;72.99;100918.30;1678870;85;21153;-72
2022/12/02 12:14:17;;;;;;;32.95;21.20;;;;;;;0.79;73.39;100917.68;1676864;84;21085;-72
2022/12/02 12:16:48;;;;;;;32.23;20.27;;;;;;;0.69;73.47;100916.26;1666292;85;21107;-72
2022/12/02 12:19:20;;;;;;;35.33;20.43;;;;;;;0.68;72.98;100914.55;1676974;85;21014;-72
2022/12/02 12:21:54;;;;;;;33.92;21.37;;;;;;;0.74;72.75;100917.19;1676242;85;21093;-72
2022/12/02 12:24:25;;;;;;;29.27;19.23;;;;;;;0.76;72.42;100928.36;1690411;83;21527;-72
2022/12/02 12:27:05;;;;;;;30.27;18.45;;;;;;;0.75;72.75;100917.61;1678483;84;21079;-72
2022/12/02 12:29:39;;;;;;;32.78;21.07;;;;;;;0.63;72.82;100923.05;1658068;85;21067;-72
2022/12/02 12:32:08;;;;;;;35.73;22.75;;;;;;;0.55;73.17;100927.22;1670127;84;21095;-72
2022/12/02 12:34:34;;;;;;;37.55;20.65;;;;;;;0.53;73.19;100926.33;1676209;84;21081;-72
2022/12/02 12:37:01;;;;;;;35.65;22.07;;;;;;;0.51;73.88;100920.33;1729815;82;21017;-72
2022/12/02 12:39:27;;;;;;;38.92;23.62;;;;;;;0.48;73.56;100919.02;1716891;83;21357;-72
2022/12/02 12:41:55;;;;;;;38.23;21.70;;;;;;;0.49;73.59;100919.44;1725206;82;21037;-72
2022/12/02 12:44:22;;;;;;;37.93;23.45;;;;;;;0.57;73.74;100913.12;1725789;82;21050;-72
2022/12/02 12:46:48;;;;;;;34.38;21.15;;;;;;;0.61;73.71;100917.02;1734568;82;21088;-72
2022/12/02 12:49:15;;;;;;;34.23;21.40;;;;;;;0.62;73.47;100918.77;1732884;82;20970;-72
2022/12/02 12:51:41;;;;;;;40.15;24.77;;;;;;;0.61;73.46;100924.73;1725294;82;21026;-72
2022/12/02 12:54:09;;;;;;;35.00;23.73;;;;;;;0.60;73.45;100923.02;1731250;82;21684;-72
2022/12/02 12:56:36;;;;;;;35.83;21.52;;;;;;;0.60;73.71;100927.30;1729421;82;21140;-72
2022/12/02 12:59:04;;;;;;;33.35;19.32;;;;;;;0.55;73.91;100919.52;1732443;82;21081;-72
2022/12/02 13:01:31;;;;;;;34.15;19.52;;;;;;;0.47;73.55;100922.83;1730401;82;21038;-72
2022/12/02 13:03:57;;;;;;;39.20;21.82;;;;;;;0.43;73.53;100930.93;1724397;82;21049;-72
2022/12/02 13:06:24;;;;;;;38.48;22.07;;;;;;;0.40;73.58;100930.89;1731470;82;21036;-72
2022/12/02 13:08:51;;;;;;;38.53;20.52;;;;;;;0.40;73.67;100936.03;1734140;82;21037;-72
2022/12/02 13:11:17;;;;;;;34.35;20.45;;;;;;;0.39;74.08;100930.43;1732437;82;21500;-72
2022/12/02 13:13:44;;;;;;;30.35;19.95;;;;;;;0.41;73.93;100926.19;1726218;83;21045;-72
2022/12/02 13:16:10;;;;;;;37.20;21.33;;;;;;;0.38;73.79;100931.28;1738936;82;21045;-72
2022/12/02 13:18:37;;;;;;;40.05;21.42;;;;;;;0.34;73.94;100932.09;1732478;82;21048;-72
2022/12/02 13:21:04;;;;;;;30.57;20.08;;;;;;;0.35;74.29;100936.38;1733415;82;21005;-72
2022/12/02 13:23:30;;;;;;;31.05;19.77;;;;;;;0.37;73.90;100935.99;1732840;82;21005;-72
2022/12/02 13:25:57;;;;;;;27.33;18.23;;;;;;;0.31;74.03;100935.88;1726129;82;21053;-72
2022/12/02 13:28:23;;;;;;;31.87;20.50;;;;;;;0.25;74.67;100930.66;1726222;83;21543;-72
2022/12/02 13:30:53;;;;;;;37.70;19.40;;;;;;;0.17;74.48;100927.58;1729769;82;21022;-72
2022/12/02 13:33:20;;;;;;;27.85;18.65;;;;;;;0.13;74.96;100919.80;1725275;82;21554;-72
2022/12/02 13:35:47;;;;;;;39.33;22.70;;;;;;;0.05;74.75;100916.25;1731767;82;21111;-72
2022/12/02 13:38:14;;;;;;;33.67;20.32;;;;;;;0.03;74.64;100916.25;1724403;82;21121;-72
2022/12/02 13:40:40;;;;;;;29.82;20.15;;;;;;;-0.02;75.10;100916.17;1717404;82;21027;-72
2022/12/02 13:43:07;;;;;;;30.30;19.53;;;;;;;-0.02;75.37;100921.73;1747451;81;21057;-72
2022/12/02 13:45:34;;;;;;;33.18;19.40;;;;;;;-0.02;75.37;100921.73;1724798;82;21464;-72
2022/12/02 13:48:01;;;;;;;35.78;21.20;;;;;;;-0.01;74.95;100926.02;1730886;82;21011;-72
2022/12/02 13:50:28;;;;;;;27.67;18.60;;;;;;;-0.03;75.34;100926.41;1722639;82;21000;-72
2022/12/02 13:52:59;;;;;;;27.13;18.63;;;;;;;-0.06;75.19;100927.22;1728980;82;21667;-72
2022/12/02 13:55:25;;;;;;;29.15;18.98;;;;;;;-0.06;74.92;100926.36;1728684;82;21586;-72
2022/12/02 13:57:52;;;;;;;28.87;18.15;;;;;;;-0.08;75.48;100935.34;1722588;82;21628;-72
2022/12/02 14:00:19;;;;;;;29.52;20.08;;;;;;;-0.13;75.87;100938.67;1726951;82;21660;-72
2022/12/02 14:02:45;;;;;;;34.53;20.50;;;;;;;-0.17;75.74;100938.17;1726346;82;21691;-72
2022/12/02 14:05:12;;;;;;;32.33;19.50;;;;;;;-0.20;75.83;100945.82;1726874;82;21803;-72
2022/12/02 14:07:39;;;;;;;33.83;22.42;;;;;;;-0.19;75.85;100945.00;1725824;82;21030;-72
2022/12/02 14:10:08;;;;;;;30.55;19.52;;;;;;;-0.21;75.89;100942.83;1725383;82;21052;-72
2022/12/02 14:12:34;;;;;;;35.30;20.82;;;;;;;-0.20;75.84;100936.41;1724254;82;21556;-72
2022/12/02 14:15:01;;;;;;;35.38;22.22;;;;;;;-0.15;75.82;100933.93;1726213;82;21651;-72
2022/12/02 14:17:27;;;;;;;37.37;22.53;;;;;;;-0.15;75.76;100940.34;1693423;83;21058;-72
2022/12/02 14:19:54;;;;;;;37.05;21.85;;;;;;;-0.16;75.77;100936.06;1666167;86;21072;-72
2022/12/02 14:22:20;;;;;;;35.17;22.42;;;;;;;-0.11;75.80;100935.69;1730857;82;21011;-72
2022/12/02 14:24:47;;;;;;;39.55;24.02;;;;;;;-0.10;75.78;100938.72;1738707;82;21062;-73
2022/12/02 14:27:14;;;;;;;43.02;25.45;;;;;;;-0.08;75.36;100935.77;1730040;82;21662;-71
2022/12/02 14:29:40;;;;;;;34.98;22.15;;;;;;;-0.07;75.13;100927.21;1740295;82;21577;-70
2022/12/02 14:32:07;;;;;;;35.50;22.73;;;;;;;-0.11;75.30;100935.69;1730015;82;21136;-70
2022/12/02 14:34:33;;;;;;;37.80;20.15;;;;;;;-0.11;75.43;100936.58;1722997;82;21138;-74
2022/12/02 14:37:00;;;;;;;33.38;21.95;;;;;;;-0.10;75.80;100936.16;1726384;82;21058;-75
2022/12/02 14:39:26;;;;;;;30.20;20.75;;;;;;;-0.13;75.99;100934.83;1722777;83;21061;-78
2022/12/02 14:41:53;;;;;;;31.00;19.57;;;;;;;-0.15;75.92;100936.50;1736026;82;22310;-74
2022/12/02 14:44:19;;;;;;;31.10;20.82;;;;;;;-0.23;76.39;100937.22;1731439;82;21046;-74
2022/12/02 14:46:46;;;;;;;34.98;23.67;;;;;;;-0.26;76.60;100939.74;1735078;82;21037;-74
2022/12/02 14:49:14;;;;;;;32.87;21.00;;;;;;;-0.31;76.17;100938.83;1734090;81;20979;-74
2022/12/02 14:51:40;;;;;;;;;;;;;;;-0.34;76.66;100936.19;1737241;82;21002;-74
2022/12/02 14:54:07;;;;;;;30.75;18.42;;;;;;;-0.37;76.50;100942.98;1731268;82;21039;-74
2022/12/02 14:56:33;;;;;;;31.55;19.07;;;;;;;-0.38;76.86;100937.41;1732879;82;21719;-74
2022/12/02 14:59:00;;;;;;;33.95;19.82;;;;;;;-0.43;77.19;100942.45;1727887;82;21015;-74
2022/12/02 15:01:26;;;;;;;35.33;20.48;;;;;;;-0.45;77.30;100941.56;1731393;82;21078;-74
2022/12/02 15:03:53;;;;;;;35.90;20.87;;;;;;;-0.46;77.40;100937.27;1728754;82;20992;-74
2022/12/02 15:06:19;;;;;;;34.63;22.37;;;;;;;-0.51;77.35;100936.33;1733708;82;21022;-74
2022/12/02 15:08:46;;;;;;;30.12;18.85;;;;;;;-0.53;77.22;100941.87;1731876;82;21007;-74
2022/12/02 15:11:13;;;;;;;38.73;23.07;;;;;;;-0.58;77.31;100943.48;1734870;82;20971;-74
2022/12/02 15:13:39;;;;;;;34.58;21.20;;;;;;;-0.66;77.23;100942.48;1732000;82;21046;-74
2022/12/02 15:16:06;;;;;;;38.73;21.55;;;;;;;-0.73;77.65;100943.66;1734942;82;21112;-74
2022/12/02 15:18:34;;;;;;;33.42;21.35;;;;;;;-0.77;77.45;100934.59;1728642;82;20964;-73
2022/12/02 15:21:00;;;;;;;36.98;22.87;;;;;;;-0.77;77.80;100946.13;1734578;82;21045;-73
2022/12/02 15:23:27;;;;;;;40.12;24.05;;;;;;;-0.75;77.70;100951.73;1730514;82;21382;-74
2022/12/02 15:25:54;;;;;;;43.92;28.17;;;;;;;-0.77;77.88;100961.09;1733916;82;21362;-74
2022/12/02 15:28:20;;;;;;;44.58;28.47;;;;;;;-0.74;76.90;100968.84;1729117;82;21548;-74
2022/12/02 15:30:47;;;;;;;40.90;27.90;;;;;;;-0.71;76.83;100968.90;1731180;82;21054;-73
2022/12/02 15:33:13;;;;;;;42.05;26.70;;;;;;;-0.66;76.67;100964.28;1730249;82;21612;-74
2022/12/02 15:35:40;;;;;;;49.85;28.35;;;;;;;-0.66;76.70;100968.14;1730356;82;21042;-74
2022/12/02 15:38:06;;;;;;;50.08;27.98;;;;;;;-0.66;76.65;100973.27;1726727;82;21130;-73
2022/12/02 15:40:33;;;;;;;46.37;28.30;;;;;;;-0.68;76.55;100973.22;1729279;82;21089;-74
2022/12/02 15:43:01;;;;;;;41.00;25.20;;;;;;;-0.69;76.76;100974.07;1735391;82;22295;-74
2022/12/02 15:45:27;;;;;;;;;;;;;;;-0.72;77.53;100974.88;1744054;82;21557;-74
2022/12/02 15:47:54;;;;;;;40.73;23.90;;;;;;;-0.72;77.50;100972.31;1736657;81;20215;-74
2022/12/02 15:50:21;;;;;;;47.35;25.05;;;;;;;-0.77;78.42;100966.23;1730768;82;21054;-74
2022/12/02 15:52:48;;;;;;;37.90;24.40;;;;;;;-0.81;78.31;100968.69;1737707;82;21104;-74
2022/12/02 15:55:15;;;;;;;41.15;25.72;;;;;;;-0.84;78.40;100964.40;1732169;82;21144;-73
2022/12/02 15:57:41;;;;;;;35.90;23.35;;;;;;;-0.88;78.83;100966.44;1729770;82;21056;-73
2022/12/02 16:00:10;;;;;;;37.23;24.00;;;;;;;-0.92;79.41;100963.38;1733524;82;21065;-73
2022/12/02 16:02:37;;;;;;;44.15;26.05;;;;;;;-0.96;79.77;100961.58;1727684;82;21140;-73
2022/12/02 16:05:05;;;;;;;38.00;22.70;;;;;;;-0.98;79.31;100958.11;1730554;82;21587;-73
2022/12/02 16:07:31;;;;;;;37.70;23.90;;;;;;;-1.00;79.79;100961.09;1719738;83;21803;-73
2022/12/02 16:09:58;;;;;;;42.65;23.83;;;;;;;-1.06;80.34;100953.28;1723997;82;21033;-73
2022/12/02 16:12:25;;;;;;;43.13;25.20;;;;;;;-1.13;80.91;100953.14;1721885;82;21057;-73
2022/12/02 16:14:53;;;;;;;36.10;23.85;;;;;;;-1.17;80.41;100957.77;1727578;82;21550;-73
2022/12/02 16:17:20;;;;;;;46.55;25.32;;;;;;;-1.18;79.60;100958.58;1725820;82;21085;-73
2022/12/02 16:19:48;;;;;;;42.93;25.82;;;;;;;-1.21;79.51;100961.08;1709327;82;21133;-73
2022/12/02 16:22:14;;;;;;;42.67;26.37;;;;;;;-1.22;79.60;100955.95;1735361;82;21045;-73
2022/12/02 16:24:41;;;;;;;39.15;24.07;;;;;;;-1.26;79.23;100960.15;1723886;82;21093;-74
2022/12/02 16:27:08;;;;;;;39.60;25.43;;;;;;;-1.31;79.05;100961.75;1731727;82;21670;-73
2022/12/02 16:29:34;;;;;;;43.13;27.10;;;;;;;-1.33;78.91;100965.11;1721600;82;21063;-73
2022/12/02 16:32:01;;;;;;;40.63;24.63;;;;;;;-1.33;78.64;100967.25;1729269;82;21116;-74
2022/12/02 16:34:27;;;;;;;40.93;24.80;;;;;;;-1.37;78.79;100959.06;1726417;82;21069;-73
2022/12/02 16:36:54;;;;;;;41.28;24.82;;;;;;;-1.37;79.36;100964.19;1691284;84;21019;-73
2022/12/02 16:39:20;;;;;;;45.88;25.82;;;;;;;-1.41;79.20;100959.81;1661331;86;21074;-74
2022/12/02 16:41:47;;;;;;;47.23;27.25;;;;;;;-1.43;79.14;100969.16;1694534;83;21571;-74
2022/12/02 16:44:14;;;;;;;38.25;24.40;;;;;;;-1.44;79.36;100962.31;1692090;84;21063;-74
2022/12/02 16:46:40;;;;;;;43.98;24.63;;;;;;;-1.43;79.81;100971.72;1692512;84;21099;-74
2022/12/02 16:49:08;;;;;;;45.75;29.15;;;;;;;-1.48;80.28;100974.62;1680922;83;21017;-74
2022/12/02 16:51:35;;;;;;;43.75;25.92;;;;;;;-1.54;79.74;100963.83;1690006;84;21371;-74
2022/12/02 16:54:03;;;;;;;42.67;27.05;;;;;;;-1.53;80.44;100962.13;1693684;83;21016;-74
2022/12/02 16:56:32;;;;;;;38.98;24.85;;;;;;;-1.58;80.86;100960.31;1692557;83;21605;-74
2022/12/02 16:58:59;;;;;;;46.00;27.48;;;;;;;-1.63;81.47;100955.92;1692822;83;21138;-74
2022/12/02 17:01:26;;;;;;;44.50;26.25;;;;;;;-1.68;81.08;100955.84;1684543;83;21071;-74
2022/12/02 17:03:54;;;;;;;37.38;25.52;;;;;;;-1.73;81.24;100954.86;1689393;83;21066;-74
2022/12/02 17:06:21;;;;;;;42.33;26.85;;;;;;;-1.78;82.70;100955.59;1690618;83;21106;-74
2022/12/02 17:08:47;;;;;;;42.20;25.45;;;;;;;-1.85;81.92;100954.56;1689241;83;21109;-74
2022/12/02 17:11:16;;;;;;;40.43;25.85;;;;;;;-1.92;81.77;100957.84;1690352;83;21082;-74
2022/12/02 17:13:45;;;;;;;43.78;26.33;;;;;;;-2.06;81.41;100956.23;1677063;85;21024;-74
2022/12/02 17:16:11;;;;;;;42.05;26.12;;;;;;;-2.22;81.66;100958.83;1667712;83;21071;-74
2022/12/02 17:18:38;;;;;;;41.05;23.80;;;;;;;-2.36;81.55;100969.13;1686240;83;21572;-74
2022/12/02 17:21:05;;;;;;;43.83;25.90;;;;;;;-2.32;82.05;100973.52;1692008;83;21584;-75
2022/12/02 17:23:31;;;;;;;42.70;26.62;;;;;;;-2.25;82.57;100974.10;1689462;83;21015;-74
2022/12/02 17:25:58;;;;;;;48.78;27.58;;;;;;;-2.20;83.06;100971.25;1690923;83;20992;-74
2022/12/02 17:28:25;;;;;;;45.10;24.40;;;;;;;-2.15;82.26;100974.79;1689219;83;21090;-74
2022/12/02 17:30:52;;;;;;;49.98;28.85;;;;;;;-2.11;82.75;100968.91;1690630;83;21117;-74
2022/12/02 17:33:18;;;;;;;46.30;26.57;;;;;;;-2.08;82.13;100977.93;1689207;83;21733;-74
2022/12/02 17:35:45;;;;;;;49.33;28.33;;;;;;;-2.09;82.46;100981.33;1689497;83;21499;-74
2022/12/02 17:38:11;;;;;;;44.80;26.52;;;;;;;-2.06;82.65;100986.52;1684765;83;21079;-74
2022/12/02 17:40:38;;;;;;;44.80;29.15;;;;;;;-2.03;82.97;100986.59;1692554;84;21110;-73
2022/12/02 17:43:04;;;;;;;41.98;24.55;;;;;;;-1.93;81.33;100981.69;1690472;84;22336;-73
2022/12/02 17:45:31;;;;;;;32.85;21.07;;;;;;;-1.93;81.40;100991.92;1689964;84;21598;-74
2022/12/02 17:47:58;;;;;;;36.13;22.42;;;;;;;-2.00;82.22;100987.50;1689696;84;21118;-73
2022/12/02 17:50:24;;;;;;;44.00;25.35;;;;;;;-2.07;82.49;100993.76;1678722;83;21109;-74
2022/12/02 17:52:51;;;;;;;50.40;29.23;;;;;;;-2.06;82.19;100985.24;1693386;83;21006;-74
2022/12/02 17:55:18;;;;;;;45.17;26.05;;;;;;;-2.05;81.78;100984.82;1688590;83;21065;-73
2022/12/02 17:57:45;;;;;;;38.33;24.80;;;;;;;-2.06;81.91;100986.52;1692434;83;21113;-74
2022/12/02 18:00:13;;;;;;;43.40;26.37;;;;;;;-2.01;81.95;100980.66;1692656;83;21057;-74
2022/12/02 18:02:40;;;;;;;39.63;26.23;;;;;;;-2.04;81.79;100983.59;1683980;84;21398;-74
2022/12/02 18:05:07;;;;;;;37.98;22.45;;;;;;;-2.03;82.01;100976.35;1686135;83;21130;-74
2022/12/02 18:07:34;;;;;;;35.75;21.73;;;;;;;-2.06;83.00;100982.69;1693283;83;21422;-74
2022/12/02 18:10:00;;;;;;;33.73;21.02;;;;;;;-2.07;82.62;100984.80;1688753;83;21003;-74
2022/12/02 18:12:27;;;;;;;34.55;20.48;;;;;;;-2.08;83.25;100979.63;1697330;83;21017;-74
2022/12/02 18:14:54;;;;;;;42.40;24.15;;;;;;;-2.10;83.65;100977.05;1685729;85;21066;-74
2022/12/02 18:17:20;;;;;;;36.03;21.15;;;;;;;-2.14;84.06;100975.23;1666848;85;21572;-74
2022/12/02 18:19:47;;;;;;;33.53;22.22;;;;;;;-2.14;83.96;100980.34;1695487;84;21017;-74
2022/12/02 18:22:13;;;;;;;37.73;22.13;;;;;;;-2.13;83.96;100983.77;1679513;84;21141;-74
2022/12/02 18:24:40;;;;;;;36.03;20.70;;;;;;;-2.11;83.85;100975.72;1682090;85;21111;-74
2022/12/02 18:27:06;;;;;;;42.35;23.02;;;;;;;-2.09;83.79;100975.35;1679762;84;21047;-74
2022/12/02 18:29:33;;;;;;;39.25;22.60;;;;;;;-2.04;83.77;100978.47;1676645;84;21013;-75
2022/12/02 18:31:59;;;;;;;39.10;22.35;;;;;;;-2.03;83.90;100981.47;1680349;84;21005;-74
2022/12/02 18:34:26;;;;;;;35.77;20.30;;;;;;;-1.97;83.82;100987.58;1668564;85;21111;-74
2022/12/02 18:36:53;;;;;;;38.00;20.73;;;;;;;-1.97;83.82;100987.58;1660243;86;21096;-74
2022/12/02 18:39:19;;;;;;;36.55;22.95;;;;;;;-1.96;83.72;100979.05;1667678;86;21083;-74
2022/12/02 18:41:46;;;;;;;36.70;23.45;;;;;;;-1.96;83.96;100977.39;1665427;85;21063;-74
2022/12/02 18:44:12;;;;;;;46.25;28.65;;;;;;;-1.94;83.66;100977.41;1666764;86;21590;-74
2022/12/02 18:46:39;;;;;;;38.65;22.02;;;;;;;-1.90;83.45;100984.34;1666689;86;21530;-74
2022/12/02 18:49:05;;;;;;;38.97;23.20;;;;;;;-1.88;83.95;100982.66;1666593;86;21055;-73
2022/12/02 18:51:32;;;;;;;46.35;27.25;;;;;;;-1.89;83.77;100986.06;1666354;85;22828;-73
2022/12/02 18:53:59;;;;;;;43.15;25.48;;;;;;;-1.87;83.69;100984.41;1666809;86;21051;-73
2022/12/02 18:56:25;;;;;;;46.00;29.70;;;;;;;-1.81;83.40;100987.11;1669211;84;21165;-72
2022/12/02 18:58:52;;;;;;;43.25;22.67;;;;;;;-1.82;83.22;100984.08;1666426;86;21126;-73
2022/12/02 19:01:19;;;;;;;45.30;24.20;;;;;;;-1.86;83.73;100982.30;1666049;85;21103;-73
2022/12/02 19:03:46;;;;;;;33.48;21.75;;;;;;;-1.91;84.01;100986.02;1664626;85;21073;-73
2022/12/02 19:06:12;;;;;;;40.25;22.32;;;;;;;-1.91;84.33;100987.71;1667200;86;21143;-73
2022/12/02 19:08:39;;;;;;;44.18;26.93;;;;;;;-1.93;84.56;100989.36;1665808;85;21166;-73
2022/12/02 19:11:05;;;;;;;39.53;22.58;;;;;;;-2.00;84.96;100987.50;1667986;85;21001;-73
2022/12/02 19:13:32;;;;;;;36.77;22.37;;;;;;;-2.04;84.93;100982.31;1667505;86;21519;-73
2022/12/02 19:15:59;;;;;;;34.15;20.72;;;;;;;-2.08;84.71;100983.05;1668144;86;21479;-73
2022/12/02 19:18:26;;;;;;;40.73;23.83;;;;;;;-2.10;85.26;100974.50;1667686;86;21027;-72
2022/12/02 19:20:52;;;;;;;46.77;28.20;;;;;;;-2.14;85.19;100970.11;1667532;86;21064;-72
2022/12/02 19:23:19;;;;;;;49.08;29.10;;;;;;;-2.12;84.36;100972.30;1661337;85;21123;-72
2022/12/02 19:25:45;;;;;;;42.05;25.72;;;;;;;-2.08;83.90;100977.93;1667127;86;21020;-72
2022/12/02 19:28:12;;;;;;;38.85;22.98;;;;;;;-2.10;84.28;100977.05;1666525;85;21039;-72
2022/12/02 19:30:39;;;;;;;38.80;23.63;;;;;;;-2.13;84.86;100974.42;1665991;86;21071;-72
2022/12/02 19:33:05;;;;;;;36.93;21.20;;;;;;;-2.19;85.24;100980.64;1671267;84;21075;-72
2022/12/02 19:35:32;;;;;;;36.77;22.73;;;;;;;-2.26;85.45;100977.50;1679162;84;21076;-72
2022/12/02 19:37:58;;;;;;;40.67;23.83;;;;;;;-2.26;85.44;100978.36;1662543;85;21061;-72
2022/12/02 19:40:25;;;;;;;42.30;24.55;;;;;;;-2.26;85.24;100981.34;1662089;85;21073;-73
2022/12/02 19:42:51;;;;;;;37.15;21.80;;;;;;;-2.25;85.08;100975.38;1691202;83;21069;-72
2022/12/02 19:45:18;;;;;;;35.80;22.73;;;;;;;-2.25;85.47;100981.78;1665643;85;21139;-72
2022/12/02 19:47:44;;;;;;;43.20;26.77;;;;;;;-2.29;85.15;100979.98;1679227;85;21068;-72
2022/12/02 19:50:14;;;;;;;37.95;23.27;;;;;;;-2.32;84.92;100978.63;1677188;84;21540;-72
2022/12/02 19:52:41;;;;;;;43.23;25.52;;;;;;;-2.34;85.70;100979.86;1666930;85;21556;-72
2022/12/02 19:55:11;;;;;;;29.30;19.27;;;;;;;-2.39;85.69;100974.17;1695138;84;21528;-72
2022/12/02 19:57:37;;;;;;;36.23;21.90;;;;;;;-2.40;85.86;100976.30;1693524;84;21120;-72
2022/12/02 20:00:07;;;;;;;38.98;23.75;;;;;;;-2.44;85.80;100979.58;1659359;86;21637;-72
2022/12/02 20:02:33;;;;;;;44.42;25.68;;;;;;;-2.49;85.93;100982.90;1672863;85;21089;-73
2022/12/02 20:05:00;;;;;;;42.20;24.07;;;;;;;-2.52;86.17;100984.10;1691449;83;20980;-73
2022/12/02 20:07:26;;;;;;;44.67;26.75;;;;;;;-2.52;86.05;100985.38;1692302;83;21039;-72
2022/12/02 20:09:53;;;;;;;44.27;25.50;;;;;;;-2.49;85.35;100990.57;1690535;84;21004;-72
2022/12/02 20:12:20;;;;;;;45.90;26.25;;;;;;;-2.50;85.90;100991.38;1692699;84;21073;-72
2022/12/02 20:14:46;;;;;;;38.17;22.93;;;;;;;-2.53;85.68;100993.86;1692833;84;21015;-72
2022/12/02 20:17:14;;;;;;;42.85;25.57;;;;;;;-2.53;85.97;100986.19;1692726;84;21052;-72
2022/12/02 20:19:41;;;;;;;45.98;28.73;;;;;;;-2.55;86.00;100987.86;1677357;84;21037;-72
2022/12/02 20:22:08;;;;;;;44.50;26.60;;;;;;;-2.55;85.67;100994.25;1677755;85;21057;-72
2022/12/02 20:24:34;;;;;;;46.65;26.60;;;;;;;-2.54;85.74;100994.70;1679752;85;21061;-72
2022/12/02 20:27:01;;;;;;;44.27;26.23;;;;;;;-2.53;85.95;100998.97;1683351;84;21657;-72
2022/12/02 20:29:27;;;;;;;46.02;27.52;;;;;;;-2.50;85.90;101001.61;1660459;85;21113;-72
2022/12/02 20:31:54;;;;;;;46.18;26.48;;;;;;;-2.44;86.02;101002.59;1678510;85;21130;-72
2022/12/02 20:34:20;;;;;;;45.83;26.23;;;;;;;-2.44;86.07;100993.23;1679624;85;21564;-72
2022/12/02 20:36:47;;;;;;;47.55;27.13;;;;;;;-2.44;85.94;100994.92;1678994;85;21099;-72
2022/12/02 20:39:13;;;;;;;44.10;26.10;;;;;;;-2.41;86.05;100997.56;1679795;84;21142;-72
2022/12/02 20:41:40;;;;;;;44.45;25.80;;;;;;;-2.38;86.40;100995.08;1684226;84;21110;-72
2022/12/02 20:44:07;;;;;;;39.03;25.08;;;;;;;-2.39;86.12;100998.47;1678916;84;21431;-72
2022/12/02 20:46:33;;;;;;;40.07;25.30;;;;;;;-2.43;86.12;100992.84;1670108;85;21085;-72
2022/12/02 20:49:00;;;;;;;43.90;27.77;;;;;;;-2.47;86.02;100996.57;1692226;84;21069;-72
2022/12/02 20:51:27;;;;;;;;;;;;;;;-2.51;85.97;100999.89;1662914;85;21081;-72
2022/12/02 20:53:54;;;;;;;45.63;26.17;;;;;;;-2.51;86.19;100992.22;1676185;85;20451;-72
2022/12/02 20:56:20;;;;;;;49.48;27.80;;;;;;;-2.48;86.10;100999.97;1674944;85;21664;-73
2022/12/02 20:58:48;;;;;;;43.85;24.15;;;;;;;-2.48;86.11;100992.30;1677284;85;21016;-72
2022/12/02 21:01:15;;;;;;;;;;;;;;;-2.49;86.03;100999.52;1677890;84;21599;-73
2022/12/02 21:03:42;;;;;;;;;;;;;;;-2.47;86.10;100994.02;1680924;84;20196;-73
2022/12/02 21:06:09;;;;;;;49.50;28.07;;;;;;;-2.47;85.62;100996.57;1677500;85;20207;-72
2022/12/02 21:08:36;;;;;;;41.80;25.52;;;;;;;-2.44;85.55;100994.92;1674649;85;21700;-72
2022/12/02 21:11:04;;;;;;;43.48;26.48;;;;;;;-2.42;85.70;100995.84;1680019;84;21622;-72
2022/12/02 21:13:30;;;;;;;40.30;23.50;;;;;;;-2.43;85.53;100994.98;1679414;84;21080;-72
2022/12/02 21:15:57;;;;;;;41.97;27.40;;;;;;;-2.41;85.74;100995.00;1678719;84;21511;-72
2022/12/02 21:18:25;;;;;;;38.13;23.67;;;;;;;-2.40;85.45;100995.47;1679346;84;21119;-72
2022/12/02 21:20:52;;;;;;;37.30;23.67;;;;;;;-2.43;85.85;100996.68;1677250;84;21603;-72
2022/12/02 21:23:19;;;;;;;40.50;25.25;;;;;;;-2.45;85.89;100998.32;1678033;84;21110;-72
2022/12/02 21:25:46;;;;;;;44.20;28.62;;;;;;;-2.44;85.79;101007.72;1663900;86;21057;-72
2022/12/02 21:28:12;;;;;;;41.75;25.32;;;;;;;-2.44;85.68;101003.88;1665345;85;21072;-72
2022/12/02 21:30:40;;;;;;;39.17;23.97;;;;;;;-2.42;85.86;101000.95;1693439;85;21140;-72
2022/12/02 21:33:06;;;;;;;35.38;22.52;;;;;;;-2.43;85.90;101000.09;1654244;85;22297;-72
2022/12/02 21:35:33;;;;;;;34.90;22.20;;;;;;;-2.40;85.90;101002.73;1668224;85;21063;-72
2022/12/02 21:37:59;;;;;;;44.20;26.90;;;;;;;-2.40;85.92;100999.31;1671374;85;21045;-72
2022/12/02 21:40:26;;;;;;;35.17;21.73;;;;;;;-2.42;85.88;101000.95;1664821;86;21029;-72
2022/12/02 21:42:53;;;;;;;38.92;25.05;;;;;;;-2.44;86.21;101005.16;1664404;85;21622;-72
2022/12/02 21:45:19;;;;;;;38.42;23.98;;;;;;;-2.43;86.06;101009.05;1667069;85;21066;-72
2022/12/02 21:47:46;;;;;;;34.27;20.35;;;;;;;-2.42;86.31;101011.19;1648487;85;21025;-72
2022/12/02 21:50:12;;;;;;;37.25;23.70;;;;;;;-2.40;86.24;101006.98;1680789;85;21100;-73
2022/12/02 21:52:39;;;;;;;36.30;23.40;;;;;;;-2.44;86.26;101011.13;1699039;83;21104;-72
2022/12/02 21:55:06;;;;;;;43.90;25.02;;;;;;;-2.44;86.35;101007.72;1663243;85;21527;-72
2022/12/02 21:57:33;;;;;;;40.73;25.48;;;;;;;-2.47;86.14;101005.94;1671893;85;21002;-72